Weather History for Cherokee, IA

Change the Weather History Date:

Friday, January 18, 2013

  Actual Average Record
Temperature  
Mean Temperature 40 °F -  
Max Temperature 50 °F 25 °F 51 °F (1951)
Min Temperature 29 °F 6 °F -31 °F (1967)
Degree Days  
Heating Degree Days 26    
Moisture  
Dew Point 28 °F    
Average Humidity 65    
Maximum Humidity 83    
Minimum Humidity 43    
Precipitation  
Precipitation 0.00 in - - ()
Sea Level Pressure  
Sea Level Pressure 29.94 in    
Wind  
Wind Speed 9 mph (SSW)    
Max Wind Speed 17 mph    
Max Gust Speed 22 mph    
Visibility 10 miles    
Events      
Averages and records for this station are not official NWS values.
T = Trace of Precipitation, MM = Missing Value Source: NWS Daily Summary

Daily Weather History Graph

Daily Weather History Graph

Search for Another Location

Airport:

Trip Planner

Search our weather history database for the weather conditions in past years. The results will help you decide how hot, cold, wet, or windy it might be!

Date:

Astronomy

Jan. 18, 2013 Rise Set
Actual Time 7:48 AM CST 5:17 PM CST
Civil Twilight 7:17 AM CST 5:48 PM CST
Nautical Twilight 6:42 AM CST 6:23 PM CST
Astronomical Twilight 6:08 AM CST 6:57 PM CST
Moon 11:15 AM CST (1/18) 12:20 AM CST (1/18)
Length of Visible Light 10h 31m
Length of Day
9h 29m
Waxing Crescent, 47% of the Moon is Illuminated
Jan 18
Waxing Crescent
Jan 18
First Quarter
Jan 26
Full
Feb 3
Last Quarter
Feb 10
New

Hourly Weather History & Observations

Time (CST) Temp. Windchill Dew Point Humidity Pressure Visibility Wind Dir Wind Speed Gust Speed Precip Events Conditions
12:15 AM 29.7 °F 23.7 °F 25.2 °F 83% 30.21 in 7.0 mi South 5.8 mph - N/A   Clear
12:35 AM 30.0 °F 23.2 °F 25.5 °F 83% 30.20 in 7.0 mi South 6.9 mph - N/A   Clear
12:55 AM 31.1 °F 23.7 °F 26.2 °F 82% 30.19 in 7.0 mi South 8.1 mph - N/A   Clear
1:15 AM 32.4 °F 24.0 °F 27.1 °F 81% 30.17 in 10.0 mi South 10.4 mph - N/A   Clear
1:35 AM 33.1 °F 25.5 °F 28.0 °F 82% 30.16 in 7.0 mi South 9.2 mph - N/A   Clear
1:55 AM 33.6 °F 25.6 °F 28.0 °F 80% 30.15 in 7.0 mi SSW 10.4 mph - N/A   Clear
2:15 AM 34.7 °F 25.5 °F 28.4 °F 78% 30.15 in 7.0 mi SSW 13.8 mph - N/A   Clear
2:35 AM 34.7 °F 25.5 °F 28.4 °F 78% 30.14 in 7.0 mi SSW 13.8 mph 18.4 mph N/A   Clear
2:55 AM 34.7 °F 25.9 °F 28.4 °F 78% 30.13 in 7.0 mi SSW 12.7 mph - N/A   Clear
3:15 AM 34.7 °F 26.9 °F 28.4 °F 78% 30.12 in 7.0 mi SSW 10.4 mph - N/A   Clear
3:35 AM 34.7 °F 26.4 °F 28.2 °F 77% 30.11 in 7.0 mi SSW 11.5 mph - N/A   Clear
3:55 AM 34.7 °F 26.4 °F 28.0 °F 77% 30.08 in 7.0 mi SSW 11.5 mph - N/A   Clear
4:15 AM 34.7 °F 25.9 °F 28.0 °F 77% 30.05 in 10.0 mi SSW 12.7 mph - N/A   Clear
4:35 AM 34.9 °F 28.3 °F 27.7 °F 75% 30.03 in 10.0 mi South 8.1 mph - N/A   Clear
4:55 AM 35.1 °F 28.6 °F 27.9 °F 75% 30.02 in 10.0 mi SSW 8.1 mph - N/A   Clear
5:15 AM 36.7 °F 28.0 °F 28.0 °F 71% 30.01 in 10.0 mi SSW 13.8 mph - N/A   Clear
5:35 AM 36.9 °F 28.2 °F 27.1 °F 68% 30.00 in 10.0 mi SSW 13.8 mph - N/A   Clear
5:55 AM 36.9 °F 28.7 °F 27.1 °F 68% 30.00 in 10.0 mi South 12.7 mph - N/A   Clear
6:15 AM 36.7 °F 28.4 °F 27.1 °F 68% 29.99 in 10.0 mi SSW 12.7 mph - N/A   Clear
6:35 AM 36.3 °F 28.9 °F 26.6 °F 68% 29.98 in 10.0 mi SSW 10.4 mph - N/A   Clear
6:55 AM 36.1 °F 28.2 °F 26.6 °F 68% 29.97 in 10.0 mi SSW 11.5 mph - N/A   Clear
7:15 AM 36.1 °F 28.2 °F 26.6 °F 68% 29.97 in 10.0 mi SSW 11.5 mph - N/A   Clear
7:35 AM 35.8 °F 27.8 °F 26.2 °F 68% 29.97 in 10.0 mi SSW 11.5 mph - N/A   Clear
7:55 AM 34.5 °F 29.4 °F 25.5 °F 70% 29.96 in 10.0 mi SSW 5.8 mph - N/A   Clear
8:15 AM 35.1 °F 27.4 °F 25.9 °F 69% 29.96 in 10.0 mi SSW 10.4 mph - N/A   Clear
8:35 AM 35.6 °F 29.2 °F 26.2 °F 69% 29.95 in 10.0 mi SSW 8.1 mph - N/A   Clear
8:55 AM 37.4 °F 30.8 °F 26.6 °F 65% 29.95 in 10.0 mi South 9.2 mph - N/A   Clear
9:15 AM 38.7 °F 31.4 °F 27.1 °F 63% 29.94 in 10.0 mi SSW 11.5 mph 17.3 mph N/A   Clear
9:35 AM 39.9 °F 32.5 °F 27.3 °F 61% 29.94 in 10.0 mi SSW 12.7 mph 17.3 mph N/A   Clear
9:55 AM 41.0 °F 33.5 °F 27.3 °F 58% 29.94 in 10.0 mi SW 13.8 mph 20.7 mph N/A   Clear
10:15 AM 41.9 °F 33.7 °F 27.3 °F 56% 29.93 in 10.0 mi SSW 17.3 mph 21.9 mph N/A   Clear
10:35 AM 42.8 °F 35.8 °F 27.5 °F 55% 29.92 in 10.0 mi SSW 13.8 mph 20.7 mph N/A   Clear
10:55 AM 44.1 °F 38.1 °F 27.1 °F 51% 29.92 in 10.0 mi SSW 11.5 mph - N/A   Clear
11:15 AM 44.6 °F 38.1 °F 26.4 °F 49% 29.91 in 10.0 mi SW 13.8 mph 17.3 mph N/A   Clear
11:35 AM 45.0 °F 38.9 °F 26.4 °F 48% 29.89 in 10.0 mi SW 12.7 mph 21.9 mph N/A   Clear
11:55 AM 45.7 °F 40.2 °F 26.8 °F 48% 29.89 in 10.0 mi SW 11.5 mph 20.7 mph N/A   Clear
12:15 PM 45.7 °F 39.8 °F 27.9 °F 50% 29.89 in 10.0 mi WSW 12.7 mph 19.6 mph N/A   Clear
12:35 PM 46.8 °F - 28.4 °F 49% 29.87 in 10.0 mi SW 12.7 mph 18.4 mph N/A   Clear
12:55 PM 47.5 °F - 28.8 °F 48% 29.86 in 10.0 mi WSW 13.8 mph - N/A   Clear
1:15 PM 47.8 °F - 28.8 °F 48% 29.86 in 10.0 mi SW 16.1 mph - N/A   Clear
1:35 PM 48.7 °F - 28.6 °F 46% 29.85 in 10.0 mi SW 12.7 mph 19.6 mph N/A   Clear
1:55 PM 50.0 °F - 29.3 °F 45% 29.84 in 10.0 mi SW 15.0 mph 20.7 mph N/A   Clear
2:15 PM 50.2 °F - 28.2 °F 43% 29.85 in 10.0 mi SW 13.8 mph 20.7 mph N/A   Clear
2:35 PM 50.9 °F - 29.3 °F 43% 29.84 in 10.0 mi SW 11.5 mph - N/A   Clear
2:55 PM 49.5 °F - 29.7 °F 47% 29.84 in 10.0 mi SSW 15.0 mph 19.6 mph N/A   Clear
3:15 PM 49.6 °F - 30.2 °F 47% 29.84 in 10.0 mi SW 10.4 mph - N/A   Clear
3:35 PM 50.9 °F - 29.8 °F 44% 29.85 in 10.0 mi SW 9.2 mph - N/A   Clear
3:55 PM 50.9 °F - 30.4 °F 45% 29.85 in 10.0 mi SW 8.1 mph - N/A   Clear
4:15 PM 50.5 °F - 30.0 °F 45% 29.85 in 10.0 mi SW 8.1 mph - N/A   Clear
4:35 PM 49.3 °F - 30.4 °F 48% 29.86 in 10.0 mi SW 8.1 mph - N/A   Clear
4:55 PM 47.7 °F - 30.4 °F 51% 29.86 in 10.0 mi SW 6.9 mph - N/A   Clear
5:15 PM 44.4 °F 40.0 °F 30.2 °F 57% 29.86 in 10.0 mi SW 8.1 mph - N/A   Clear
5:35 PM 42.1 °F 38.4 °F 29.7 °F 61% 29.86 in 10.0 mi SW 5.8 mph - N/A   Clear
5:55 PM 40.1 °F 36.9 °F 30.0 °F 67% 29.87 in 10.0 mi SW 4.6 mph - N/A   Clear
6:15 PM 41.2 °F 39.2 °F 30.0 °F 65% 29.87 in 10.0 mi SW 3.5 mph - N/A   Clear
6:35 PM 41.4 °F 37.6 °F 30.6 °F 65% 29.87 in 10.0 mi SSW 5.8 mph - N/A   Clear
6:55 PM 41.2 °F 39.2 °F 30.6 °F 66% 29.87 in 10.0 mi SSE 3.5 mph - N/A   Clear
7:15 PM 40.5 °F - 30.2 °F 67% 29.88 in 10.0 mi Calm Calm - N/A   Clear
7:35 PM 39.6 °F - 29.5 °F 67% 29.88 in 10.0 mi Calm Calm - N/A   Clear
7:55 PM 37.6 °F - 29.7 °F 73% 29.87 in 10.0 mi Calm Calm - N/A   Clear
8:15 PM 38.8 °F - 30.2 °F 71% 29.87 in 10.0 mi Calm Calm - N/A   Clear
8:35 PM 39.2 °F - 29.1 °F 67% 29.87 in 10.0 mi Calm Calm - N/A   Clear
8:55 PM 37.0 °F - 29.1 °F 73% 29.87 in 10.0 mi Calm Calm - N/A   Clear
9:15 PM 37.6 °F 35.1 °F 30.2 °F 75% 29.87 in 10.0 mi South 3.5 mph - N/A   Clear
9:35 PM 36.3 °F 33.7 °F 28.9 °F 75% 29.86 in 10.0 mi SSW 3.5 mph - N/A   Clear
9:55 PM 37.4 °F - 30.2 °F 75% 29.86 in 10.0 mi Calm Calm - N/A   Clear
10:15 PM 37.8 °F - 30.2 °F 74% 29.85 in 10.0 mi Calm Calm - N/A   Clear
10:35 PM 35.6 °F 32.8 °F 29.3 °F 78% 29.85 in 10.0 mi South 3.5 mph - N/A   Clear
10:55 PM 33.8 °F 30.8 °F 27.9 °F 79% 29.84 in 10.0 mi SSW 3.5 mph - N/A   Clear
11:15 PM 35.1 °F 32.2 °F 30.2 °F 82% 29.84 in 10.0 mi South 3.5 mph - N/A   Clear
11:35 PM 36.3 °F 33.7 °F 30.4 °F 79% 29.83 in 10.0 mi South 3.5 mph - N/A   Clear
11:55 PM 36.5 °F 32.7 °F 30.6 °F 79% 29.83 in 10.0 mi South 4.6 mph - N/A   Clear